Weather at Pongtiku Airport

Public forecast

Using degrees Celsius for public forecast. Weather courtesy of forecast.io.

Closest aviation weather report (METAR) to Pongtiku Airport

Closest report is Sultan Aji Muhammad Sulaiman Sepinggan International Airport, 205.5 nm (380.6 km) WNW.

2023/02/08 00:00 (retrieved 35 minutes ago)

WALL 080000Z 36005KT 340V040 9999 FEW020 BKN100 26/23 Q1009 NOSIG

Closest aviation forecast (TAF) to Pongtiku Airport

Forecast is more than 6 hours old.

Closest forecast is Haluoleo Airport, 167.6 nm (310.3 km) ESE.

2023/02/07 18:00 (retrieved 7 hours ago)

TAF WAWW 071700Z 0718/0806 00000KT 7000 SCT018 BECMG 0801/0803 33010KT